createdAt,value
2023-03-23T16:00:28.874Z,5.68
2023-03-23T16:03:22.450Z,6.25
2023-03-23T16:06:25.308Z,6.00
2023-03-23T16:09:17.095Z,7.18
2023-03-23T16:12:02.680Z,7.45
2023-03-23T16:14:48.264Z,5.85
2023-03-23T16:17:33.765Z,6.93
2023-03-23T16:20:22.440Z,5.88
2023-03-23T16:23:08.225Z,5.90
2023-03-23T16:25:54.106Z,5.07
2023-03-23T16:28:39.727Z,4.72
2023-03-23T16:31:25.539Z,5.80
2023-03-23T16:34:10.969Z,5.10
2023-03-23T16:36:56.595Z,4.55
2023-03-23T16:39:42.188Z,4.00
2023-03-23T16:42:27.580Z,2.90
2023-03-23T16:45:14.412Z,4.38
2023-03-23T16:48:01.609Z,4.18
2023-03-23T16:50:52.566Z,3.72
2023-03-23T16:53:42.130Z,3.63
2023-03-23T16:56:27.965Z,2.50
2023-03-23T16:59:14.579Z,3.25
2023-03-23T17:02:03.702Z,2.42
2023-03-23T17:04:49.255Z,3.28
2023-03-23T17:07:35.065Z,3.67
2023-03-23T17:10:21.144Z,3.03
2023-03-23T17:13:07.190Z,1.83
2023-03-23T17:15:54.733Z,2.63
2023-03-23T17:18:40.222Z,2.75
2023-03-23T17:21:26.464Z,2.33
2023-03-23T17:24:12.821Z,2.30
2023-03-23T17:26:58.168Z,2.50
2023-03-23T17:29:45.119Z,3.05
2023-03-23T17:32:31.103Z,2.80
2023-03-23T17:35:16.998Z,3.13
2023-03-23T17:38:02.774Z,3.53
2023-03-23T17:40:48.515Z,3.50
2023-03-23T17:43:35.595Z,3.75
2023-03-23T17:46:21.329Z,3.83
2023-03-23T17:49:09.837Z,3.78
2023-03-23T17:51:56.295Z,4.05
2023-03-23T17:54:45.953Z,3.45
2023-03-23T17:57:32.394Z,4.57
2023-03-23T18:00:18.709Z,4.18
2023-03-23T18:03:47.186Z,4.30
2023-03-23T18:06:33.502Z,5.13
2023-03-23T18:09:19.170Z,4.30
2023-03-23T18:12:04.521Z,4.40
2023-03-23T18:14:50.555Z,4.95
2023-03-23T18:17:36.590Z,3.95
2023-03-23T18:20:22.374Z,4.85
2023-03-23T18:23:07.791Z,4.90
2023-03-23T18:25:54.026Z,4.28
2023-03-23T18:28:39.637Z,3.22
2023-03-23T18:31:26.192Z,3.20
2023-03-23T18:34:11.520Z,4.35
2023-03-23T18:36:57.233Z,3.58
2023-03-23T18:39:42.728Z,2.60
2023-03-23T18:42:29.402Z,2.67
2023-03-23T18:45:15.477Z,2.45
2023-03-23T18:48:00.685Z,3.95
2023-03-23T18:50:51.482Z,3.28
2023-03-23T18:53:37.272Z,3.35
2023-03-23T18:56:22.787Z,3.63
2023-03-23T18:59:08.138Z,3.25
2023-03-23T19:01:54.084Z,2.85
2023-03-23T19:04:39.907Z,2.92
2023-03-23T19:07:25.634Z,2.50
2023-03-23T19:10:11.351Z,2.80
2023-03-23T19:12:57.267Z,2.17
2023-03-23T19:15:43.284Z,3.03
2023-03-23T19:18:29.309Z,1.80
2023-03-23T19:21:18.022Z,2.45
2023-03-23T19:24:07.280Z,2.22
2023-03-23T19:26:53.487Z,2.40
2023-03-23T19:29:38.800Z,2.17
2023-03-23T19:32:24.903Z,2.42
2023-03-23T19:35:11.195Z,2.65
2023-03-23T19:37:56.652Z,2.50
2023-03-23T19:40:57.585Z,2.38
2023-03-23T19:43:43.263Z,2.15
2023-03-23T19:46:30.431Z,2.22
2023-03-23T19:49:17.140Z,2.15
2023-03-23T19:52:07.798Z,2.55
2023-03-23T19:54:57.262Z,2.45
2023-03-23T19:57:43.536Z,3.38
2023-03-23T20:00:29.665Z,2.47
2023-03-23T20:03:15.811Z,2.65
2023-03-23T20:06:02.927Z,2.30
2023-03-23T20:08:49.129Z,2.90
2023-03-23T20:11:35.140Z,2.83
2023-03-23T20:14:22.113Z,3.08
2023-03-23T20:17:09.837Z,2.50
2023-03-23T20:19:56.474Z,2.95
2023-03-23T20:22:42.752Z,2.75
2023-03-23T20:25:29.256Z,3.38
2023-03-23T20:28:15.119Z,2.50
2023-03-23T20:31:18.913Z,1.95
2023-03-23T20:34:11.153Z,2.10
2023-03-23T20:36:58.259Z,1.80
2023-03-23T20:39:46.135Z,1.90
2023-03-23T20:42:33.553Z,3.05
2023-03-23T20:45:20.283Z,2.88
2023-03-23T20:48:06.404Z,2.38
2023-03-23T20:50:51.971Z,1.95
2023-03-23T20:53:39.626Z,2.33
2023-03-23T20:56:25.664Z,1.95
2023-03-23T20:59:11.940Z,2.50
2023-03-23T21:01:57.698Z,1.83
2023-03-23T21:04:45.287Z,2.03
2023-03-23T21:07:31.810Z,3.05
2023-03-23T21:10:17.697Z,2.20
2023-03-23T21:13:03.764Z,2.63
2023-03-23T21:15:51.885Z,2.22
2023-03-23T21:18:38.409Z,2.53
2023-03-23T21:21:27.428Z,1.98
2023-03-23T21:24:12.970Z,2.63
2023-03-23T21:27:00.921Z,2.38
2023-03-23T21:29:48.578Z,2.85
2023-03-23T21:32:35.179Z,1.90
2023-03-23T21:35:47.058Z,2.05
2023-03-23T21:38:33.939Z,2.25
2023-03-23T21:41:20.697Z,2.20
2023-03-23T21:44:10.595Z,2.00
2023-03-23T21:46:56.670Z,1.90
2023-03-23T21:49:46.138Z,3.28
2023-03-23T21:52:32.880Z,2.58
2023-03-23T21:55:18.721Z,1.50
2023-03-23T21:58:05.712Z,1.45
2023-03-23T22:00:54.235Z,1.63
2023-03-23T22:03:40.981Z,1.92
2023-03-23T22:06:28.508Z,2.08
2023-03-23T22:09:14.244Z,2.00
2023-03-23T22:12:00.554Z,2.50
2023-03-23T22:14:46.122Z,1.83
2023-03-23T22:17:31.740Z,2.20
2023-03-23T22:20:17.475Z,1.83
2023-03-23T22:23:02.930Z,2.47
2023-03-23T22:25:48.521Z,2.75
2023-03-23T22:28:37.137Z,2.67
2023-03-23T22:31:26.554Z,2.08
2023-03-23T22:34:12.785Z,1.98
2023-03-23T22:36:58.705Z,1.90
2023-03-23T22:39:51.409Z,2.03
2023-03-23T22:42:36.686Z,2.13
2023-03-23T22:45:26.380Z,1.98
2023-03-23T22:48:12.308Z,2.70
2023-03-23T22:50:58.575Z,2.40
2023-03-23T22:53:44.846Z,2.22
2023-03-23T22:56:30.968Z,1.90
2023-03-23T22:59:20.343Z,3.08
2023-03-23T23:02:05.798Z,2.20
2023-03-23T23:04:51.682Z,2.88
2023-03-23T23:07:37.679Z,2.10
2023-03-23T23:10:23.336Z,2.65
2023-03-23T23:13:10.189Z,2.75
2023-03-23T23:15:58.199Z,2.88
2023-03-23T23:18:44.864Z,2.42
2023-03-23T23:21:30.478Z,2.90
2023-03-23T23:24:19.106Z,2.63
2023-03-23T23:27:04.923Z,3.60
2023-03-23T23:29:53.858Z,3.42
2023-03-23T23:32:39.755Z,2.90
2023-03-23T23:35:28.600Z,3.85
2023-03-23T23:38:29.294Z,2.58
2023-03-23T23:41:14.964Z,2.70
2023-03-23T23:44:04.809Z,2.45
2023-03-23T23:46:50.644Z,2.30
2023-03-23T23:49:36.368Z,2.35
2023-03-23T23:52:22.224Z,2.20
2023-03-23T23:55:09.729Z,1.75
2023-03-23T23:57:55.159Z,2.10
